createdAt,value
2022-12-01T00:00:56.575Z,-9.06
2022-12-01T00:06:20.474Z,-9.12
2022-12-01T00:11:23.585Z,-9.10
2022-12-01T00:16:26.808Z,-9.18
2022-12-01T00:21:29.929Z,-9.19
2022-12-01T00:26:33.044Z,-9.21
2022-12-01T00:31:38.836Z,-9.24
2022-12-01T00:36:41.990Z,-9.26
2022-12-01T00:41:45.109Z,-9.23
2022-12-01T00:46:48.210Z,-9.26
2022-12-01T00:51:53.875Z,-9.33
2022-12-01T00:56:57.054Z,-9.35
2022-12-01T01:02:00.520Z,-9.41
2022-12-01T01:07:04.879Z,-9.45
2022-12-01T01:12:08.045Z,-9.45
2022-12-01T01:17:11.176Z,-9.49
2022-12-01T01:22:14.370Z,-9.52
2022-12-01T01:27:17.614Z,-9.54
2022-12-01T01:32:21.176Z,-9.60
2022-12-01T01:37:25.557Z,-9.58
2022-12-01T01:42:28.716Z,-9.63
2022-12-01T01:47:40.275Z,-9.61
2022-12-01T01:52:51.991Z,-9.60
2022-12-01T01:57:55.259Z,-9.61
2022-12-01T02:02:58.714Z,-9.64
2022-12-01T02:08:03.157Z,-9.67
2022-12-01T02:13:39.103Z,-9.67
2022-12-01T02:18:57.281Z,-9.66
2022-12-01T02:24:26.440Z,-9.67
2022-12-01T02:29:48.375Z,-9.75
2022-12-01T02:35:05.930Z,-9.77
2022-12-01T02:40:19.786Z,-9.73
2022-12-01T02:45:32.681Z,-9.73
2022-12-01T02:50:38.504Z,-9.77
2022-12-01T02:55:54.328Z,-9.79
2022-12-01T03:01:12.233Z,-9.77
2022-12-01T03:06:22.959Z,-9.78
2022-12-01T03:11:46.187Z,-9.80
2022-12-01T03:16:54.704Z,-9.89
2022-12-01T03:22:06.044Z,-9.86
2022-12-01T03:27:11.529Z,-9.89
2022-12-01T03:32:20.891Z,-9.90
2022-12-01T03:37:33.112Z,-9.88
2022-12-01T03:42:44.443Z,-9.92
2022-12-01T03:47:47.814Z,-9.98
2022-12-01T03:52:51.144Z,-10.01
2022-12-01T03:58:07.949Z,-10.06
2022-12-01T04:03:18.648Z,-10.10
2022-12-01T04:08:22.472Z,-10.07
2022-12-01T04:13:26.173Z,-10.06
2022-12-01T04:18:29.346Z,-10.11
2022-12-01T04:23:50.836Z,-10.12
2022-12-01T04:29:05.748Z,-10.10
2022-12-01T04:34:10.790Z,-10.18
2022-12-01T04:39:14.072Z,-10.14
2022-12-01T04:44:18.087Z,-10.04
2022-12-01T04:49:23.824Z,-9.99
2022-12-01T04:54:27.323Z,-9.94
2022-12-01T04:59:30.434Z,-9.86
2022-12-01T05:04:38.866Z,-9.71
2022-12-01T05:09:42.069Z,-9.63
2022-12-01T05:14:46.308Z,-9.58
2022-12-01T05:20:07.957Z,-9.48
2022-12-01T05:25:11.048Z,-9.36
2022-12-01T05:30:14.299Z,-9.31
2022-12-01T05:35:17.618Z,-9.27
2022-12-01T05:40:20.754Z,-9.22
2022-12-01T05:50:40.933Z,-8.93
2022-12-01T05:55:44.077Z,-8.79
2022-12-01T06:00:47.653Z,-8.61
2022-12-01T06:05:51.324Z,-8.51
2022-12-01T06:10:54.573Z,-8.32
2022-12-01T06:16:03.289Z,-8.18
2022-12-01T06:21:07.504Z,-7.93
2022-12-01T06:26:15.078Z,-7.78
2022-12-01T06:31:18.302Z,-7.55
2022-12-01T06:36:22.469Z,-7.40
2022-12-01T06:41:25.576Z,-7.16
2022-12-01T06:46:28.801Z,-6.94
2022-12-01T06:51:34.450Z,-6.72
2022-12-01T06:56:37.664Z,-6.51
2022-12-01T07:01:40.934Z,-6.28
2022-12-01T07:06:44.252Z,-4.61
2022-12-01T07:11:47.463Z,-2.38
2022-12-01T07:16:50.677Z,-0.66
2022-12-01T07:21:53.839Z,0.45
2022-12-01T07:26:56.936Z,1.02
2022-12-01T07:32:00.031Z,1.19
2022-12-01T07:37:03.176Z,2.39
2022-12-01T07:42:06.425Z,3.23
2022-12-01T07:47:09.527Z,3.30
2022-12-01T07:52:12.713Z,3.47
2022-12-01T07:57:18.459Z,3.22
2022-12-01T08:02:59.084Z,4.09
2022-12-01T08:08:21.089Z,4.12
2022-12-01T08:13:27.341Z,5.00
2022-12-01T08:18:30.514Z,4.28
2022-12-01T08:23:34.724Z,4.04
2022-12-01T08:28:41.218Z,3.74
2022-12-01T08:33:44.627Z,3.26
2022-12-01T08:38:50.739Z,3.85
2022-12-01T08:43:58.825Z,3.08
2022-12-01T08:49:26.127Z,4.08
2022-12-01T08:54:47.604Z,4.35
2022-12-01T08:59:51.585Z,3.35
2022-12-01T09:04:54.852Z,3.27
2022-12-01T09:09:58.219Z,3.29
2022-12-01T09:15:01.435Z,3.98
2022-12-01T09:20:05.558Z,4.18
2022-12-01T09:25:14.954Z,3.87
2022-12-01T09:30:18.421Z,4.20
2022-12-01T09:35:23.511Z,4.53
2022-12-01T09:40:38.790Z,4.31
2022-12-01T09:45:47.814Z,3.12
2022-12-01T09:50:51.089Z,4.00
2022-12-01T09:55:57.827Z,3.94
2022-12-01T10:01:04.641Z,3.41
2022-12-01T10:06:27.207Z,2.83
2022-12-01T10:11:36.494Z,3.13
2022-12-01T10:17:02.467Z,2.51
2022-12-01T10:22:17.444Z,2.55
2022-12-01T10:27:26.683Z,2.40
2022-12-01T10:33:02.260Z,2.20
2022-12-01T10:38:13.070Z,1.60
2022-12-01T10:43:17.085Z,1.30
2022-12-01T10:48:23.011Z,1.06
2022-12-01T10:53:34.541Z,0.73
2022-12-01T10:58:56.300Z,0.44
2022-12-01T11:04:08.761Z,-0.23
2022-12-01T11:09:26.194Z,-0.57
2022-12-01T11:14:44.208Z,-1.04
2022-12-01T11:19:47.849Z,-1.20
2022-12-01T11:24:54.025Z,-1.48
2022-12-01T11:30:05.089Z,-1.54
2022-12-01T11:35:14.363Z,-1.69
2022-12-01T11:40:26.480Z,-1.74
2022-12-01T11:45:40.536Z,-1.98
2022-12-01T11:50:59.848Z,-2.00
2022-12-01T11:56:23.861Z,-2.12
2022-12-01T12:07:16.107Z,-2.32
2022-12-01T12:12:19.223Z,-2.34
2022-12-01T12:17:37.930Z,-2.37
2022-12-01T12:23:32.119Z,-2.40
2022-12-01T12:28:56.938Z,-2.48
2022-12-01T12:34:25.259Z,-2.58
2022-12-01T12:39:55.148Z,-2.72
2022-12-01T12:45:41.648Z,-2.76
2022-12-01T12:51:13.309Z,-2.91
2022-12-01T12:56:21.090Z,-3.03
2022-12-01T13:01:34.603Z,-3.10
2022-12-01T13:06:46.284Z,-3.10
2022-12-01T13:11:56.155Z,-3.21
2022-12-01T13:17:08.348Z,-3.34
2022-12-01T13:22:14.549Z,-3.35
2022-12-01T13:27:21.552Z,-3.42
2022-12-01T13:32:45.033Z,-3.51
2022-12-01T13:37:51.357Z,-3.55
2022-12-01T13:43:10.266Z,-3.62
2022-12-01T13:48:30.297Z,-3.68
2022-12-01T13:53:53.111Z,-3.73
2022-12-01T13:58:56.435Z,-3.95
2022-12-01T14:04:11.796Z,-3.93
2022-12-01T14:09:18.023Z,-3.98
2022-12-01T14:14:26.511Z,-4.06
2022-12-01T14:19:44.676Z,-4.13
2022-12-01T14:24:53.338Z,-4.27
2022-12-01T14:29:56.467Z,-4.35
2022-12-01T14:35:06.387Z,-4.43
2022-12-01T14:40:30.673Z,-4.51
2022-12-01T14:46:09.417Z,-4.62
2022-12-01T14:51:34.293Z,-4.73
2022-12-01T14:56:38.343Z,-4.94
2022-12-01T15:01:41.826Z,-5.07
2022-12-01T15:06:45.659Z,-5.09
2022-12-01T15:11:53.306Z,-5.16
2022-12-01T15:16:57.006Z,-5.27
2022-12-01T15:22:05.607Z,-5.33
2022-12-01T15:27:31.493Z,-5.36
2022-12-01T15:32:39.900Z,-5.37
2022-12-01T15:37:44.671Z,-5.44
2022-12-01T15:43:04.748Z,-5.41
2022-12-01T15:48:19.244Z,-5.50
2022-12-01T15:53:33.137Z,-5.54
2022-12-01T15:58:43.966Z,-5.60
2022-12-01T16:03:59.326Z,-5.65
2022-12-01T16:09:18.896Z,-5.70
2022-12-01T16:14:27.311Z,-5.70
2022-12-01T16:19:34.265Z,-5.83
2022-12-01T16:25:04.612Z,-5.87
2022-12-01T16:30:21.748Z,-5.94
2022-12-01T16:35:29.534Z,-5.99
2022-12-01T16:40:33.268Z,-5.98
2022-12-01T16:45:36.436Z,-6.03
2022-12-01T16:50:40.837Z,-6.13
2022-12-01T16:55:51.478Z,-6.19
2022-12-01T17:06:48.812Z,-6.35
2022-12-01T17:11:51.967Z,-6.43
2022-12-01T17:16:58.660Z,-6.45
2022-12-01T17:22:01.890Z,-6.52
2022-12-01T17:27:06.373Z,-6.52
2022-12-01T17:32:11.251Z,-6.55
2022-12-01T17:37:20.501Z,-6.55
2022-12-01T17:42:24.166Z,-6.62
2022-12-01T17:47:27.652Z,-6.67
2022-12-01T17:52:30.920Z,-6.67
2022-12-01T17:57:34.328Z,-6.74
2022-12-01T18:02:38.901Z,-6.82
2022-12-01T18:07:44.841Z,-6.98
2022-12-01T18:12:49.127Z,-7.05
2022-12-01T18:17:58.846Z,-7.18
2022-12-01T18:23:32.465Z,-7.28
2022-12-01T18:29:52.195Z,-7.44
2022-12-01T18:56:36.535Z,-7.71
2022-12-01T19:02:13.825Z,-7.79
2022-12-01T19:07:55.613Z,-7.82
2022-12-01T19:14:23.665Z,-7.85
2022-12-01T19:20:08.505Z,-7.90
